Time;durP1;ratioP1;P1;durP2;ratioP2;P2;SDS_P1;SDS_P2;PMS_P1;PMS_P2;Temp;Humidity;BMP_temperature;BMP_pressure;BME280_temperature;BME280_humidity;BME280_pressure;Samples;Min_cycle;Max_cycle;Signal;HPM_P1;HPM_P2
2023/07/16 06:42:34;;;;;;;2.10;1.90;;;;;;;29.17;32.41;100576.99;85686;1305;545115;-70
2023/07/16 06:44:36;;;;;;;3.50;3.20;;;;;;;29.02;32.80;100577.46;88136;1276;138544;-72
2023/07/16 06:46:37;;;;;;;2.40;2.30;;;;;;;29.04;33.32;100578.39;87879;1278;22689;-73
2023/07/16 06:48:39;;;;;;;2.20;2.10;;;;;;;29.21;33.69;100578.27;87849;1275;137123;-69
2023/07/16 06:50:41;;;;;;;2.30;0.70;;;;;;;29.41;33.25;100575.55;87851;1278;25349;-72
2023/07/16 06:52:43;;;;;;;0.80;0.50;;;;;;;29.55;33.15;100577.74;87900;1277;136758;-71
2023/07/16 06:54:44;;;;;;;1.20;0.60;;;;;;;29.72;32.74;100581.27;88012;1276;22532;-71
2023/07/16 06:56:46;;;;;;;1.60;0.70;;;;;;;29.83;32.10;100578.05;87714;1272;138746;-71
2023/07/16 06:58:48;;;;;;;2.50;1.00;;;;;;;29.82;32.13;100577.52;88128;1272;22537;-72
2023/07/16 07:00:50;;;;;;;1.50;1.50;;;;;;;29.79;32.09;100578.80;88078;1272;137432;-69
2023/07/16 07:02:51;;;;;;;2.40;0.60;;;;;;;29.86;31.65;100582.25;91148;1272;22194;-69
2023/07/16 07:04:53;;;;;;;1.80;0.40;;;;;;;29.87;31.56;100579.14;91080;1272;138467;-70
2023/07/16 07:06:55;;;;;;;1.50;1.40;;;;;;;29.76;32.27;100576.06;91182;1270;22354;-72
2023/07/16 07:08:57;;;;;;;0.70;0.40;;;;;;;29.69;33.17;100574.39;91076;1271;138296;-72
2023/07/16 07:10:58;;;;;;;0.70;0.70;;;;;;;29.70;33.17;100579.86;91183;1272;22219;-73
2023/07/16 07:13:00;;;;;;;1.00;0.80;;;;;;;29.68;33.06;100582.69;91002;1272;137551;-73
2023/07/16 07:15:02;;;;;;;1.70;0.30;;;;;;;29.62;32.92;100579.39;91152;1273;22244;-71
2023/07/16 07:17:04;;;;;;;1.50;0.70;;;;;;;29.58;32.72;100578.06;91029;1272;137809;-72
2023/07/16 07:19:06;;;;;;;1.10;1.00;;;;;;;29.59;33.05;100572.05;91146;1272;22216;-71
2023/07/16 07:21:08;;;;;;;1.30;1.20;;;;;;;29.66;33.07;100571.88;91065;1272;137646;-71
2023/07/16 07:23:09;;;;;;;2.50;0.50;;;;;;;29.71;33.39;100567.84;91229;1270;22446;-72
2023/07/16 07:25:11;;;;;;;1.30;0.30;;;;;;;29.81;33.57;100570.02;91107;1273;138510;-71
2023/07/16 07:27:13;;;;;;;0.40;0.20;;;;;;;29.87;33.49;100570.27;91227;1270;22123;-68
2023/07/16 07:29:15;;;;;;;0.80;0.60;;;;;;;29.91;32.27;100570.60;91110;1272;137383;-71
2023/07/16 07:31:16;;;;;;;0.90;0.40;;;;;;;29.93;31.87;100570.16;91206;1272;22352;-70
2023/07/16 07:33:18;;;;;;;0.30;0.20;;;;;;;29.92;31.79;100571.77;91099;1272;137579;-73
2023/07/16 07:35:19;;;;;;;0.50;0.40;;;;;;;29.81;31.83;100571.27;91200;1270;22317;-73
2023/07/16 07:37:21;;;;;;;1.20;0.20;;;;;;;29.66;31.29;100567.55;91102;1270;138019;-73
2023/07/16 07:39:23;;;;;;;2.60;0.40;;;;;;;29.55;31.55;100567.20;91173;1273;22334;-71
2023/07/16 07:41:24;;;;;;;0.20;0.20;;;;;;;29.40;31.81;100570.13;91068;1272;138634;-71
2023/07/16 07:43:26;;;;;;;2.80;0.20;;;;;;;29.24;32.32;100566.73;91059;1272;23065;-72
2023/07/16 07:45:28;;;;;;;2.90;0.50;;;;;;;29.08;32.26;100568.77;91104;1272;137395;-72
2023/07/16 07:47:30;;;;;;;0.90;0.40;;;;;;;28.95;32.42;100572.56;91222;1272;23042;-72
2023/07/16 07:49:31;;;;;;;1.10;0.20;;;;;;;28.83;32.72;100573.07;91157;1270;139003;-72
2023/07/16 07:51:33;;;;;;;0.30;0.20;;;;;;;28.69;32.14;100580.82;91291;1270;22206;-69
2023/07/16 07:53:35;;;;;;;0.40;0.20;;;;;;;28.52;32.46;100581.61;91179;1270;137946;-71
2023/07/16 07:55:36;;;;;;;2.30;0.20;;;;;;;28.36;32.36;100581.45;91267;1272;23005;-70
2023/07/16 07:57:38;;;;;;;0.20;0.20;;;;;;;28.21;33.14;100581.28;91079;1273;137293;-72
2023/07/16 07:59:40;;;;;;;0.50;0.20;;;;;;;28.07;32.64;100584.31;91219;1272;22314;-71
2023/07/16 08:01:41;;;;;;;1.00;0.50;;;;;;;27.95;32.59;100580.52;91115;1270;137739;-73
2023/07/16 08:03:43;;;;;;;0.60;0.50;;;;;;;27.85;33.30;100581.09;90963;1278;22378;-74
2023/07/16 08:05:48;;;;;;;0.50;0.30;;;;;;;27.79;34.81;100579.71;91146;1272;137725;-71
2023/07/16 08:07:51;;;;;;;2.10;0.80;;;;;;;27.78;35.62;100580.48;91232;1270;22469;-69
2023/07/16 08:09:53;;;;;;;0.60;0.20;;;;;;;27.77;34.58;100577.65;91130;1270;138077;-70
2023/07/16 08:11:54;;;;;;;0.60;0.20;;;;;;;27.77;33.03;100577.48;91254;1269;22970;-72
2023/07/16 08:13:56;;;;;;;0.80;0.70;;;;;;;27.76;33.47;100576.41;91124;1273;138405;-71
2023/07/16 08:15:58;;;;;;;0.20;0.20;;;;;;;27.75;33.23;100573.52;91246;1271;22370;-71
2023/07/16 08:17:59;;;;;;;1.50;0.30;;;;;;;27.72;32.75;100571.86;91010;1272;137219;-71
2023/07/16 08:20:02;;;;;;;0.60;0.10;;;;;;;27.69;32.62;100572.63;91266;1272;22297;-72
2023/07/16 08:22:04;;;;;;;0.50;0.10;;;;;;;27.59;32.08;100558.33;91019;1275;22448;-71
2023/07/16 08:24:06;;;;;;;0.70;0.30;;;;;;;27.56;32.37;100559.04;91040;1273;137932;-74
2023/07/16 08:26:08;;;;;;;0.40;0.20;;;;;;;27.57;32.85;100566.30;91284;1270;22248;-71
2023/07/16 08:28:11;;;;;;;0.60;0.10;;;;;;;27.53;32.67;100559.89;91144;1272;137371;-71
2023/07/16 08:30:13;;;;;;;1.10;0.10;;;;;;;27.52;32.75;100555.84;91244;1268;22206;-69
2023/07/16 08:32:19;;;;;;;0.10;0.10;;;;;;;27.50;33.14;100559.45;90970;1275;140240;-70
2023/07/16 08:34:20;;;;;;;1.20;0.10;;;;;;;27.46;33.03;100558.84;91279;1274;22306;-72
2023/07/16 08:36:22;;;;;;;0.30;0.20;;;;;;;27.41;33.09;100557.61;91123;1270;139327;-71
2023/07/16 08:38:24;;;;;;;0.20;0.10;;;;;;;27.33;33.41;100553.34;91255;1270;22206;-73
2023/07/16 08:40:27;;;;;;;0.40;0.20;;;;;;;27.26;33.84;100552.23;91150;1273;138356;-70
2023/07/16 08:42:29;;;;;;;3.30;0.40;;;;;;;27.26;34.24;100551.03;91240;1270;22200;-72
2023/07/16 08:44:31;;;;;;;0.80;0.30;;;;;;;27.32;34.02;100549.86;91134;1270;143014;-68
2023/07/16 08:46:33;;;;;;;2.10;0.30;;;;;;;27.37;33.64;100550.16;91251;1270;22788;-72
2023/07/16 08:48:35;;;;;;;0.60;0.10;;;;;;;27.33;33.66;100549.84;91151;1270;138530;-70
2023/07/16 08:50:37;;;;;;;2.80;0.50;;;;;;;27.26;34.14;100548.05;91140;1260;22805;-72
2023/07/16 08:52:40;;;;;;;0.40;0.40;;;;;;;27.23;34.83;100548.20;91109;1273;137820;-74
2023/07/16 08:54:41;;;;;;;1.50;0.20;;;;;;;27.22;34.94;100547.39;91279;1272;22505;-70
2023/07/16 08:56:43;;;;;;;1.90;0.20;;;;;;;27.24;34.50;100547.59;91155;1269;137596;-73
2023/07/16 08:58:45;;;;;;;1.10;0.20;;;;;;;27.28;34.18;100547.39;91268;1272;22351;-72
2023/07/16 09:00:47;;;;;;;1.40;0.50;;;;;;;27.33;34.11;100545.40;91151;1270;138264;-73
2023/07/16 09:02:49;;;;;;;1.60;0.30;;;;;;;27.41;34.03;100544.30;91271;1259;22215;-73
2023/07/16 09:04:51;;;;;;;2.80;0.40;;;;;;;27.49;34.34;100540.95;91149;1268;137157;-68
2023/07/16 09:06:53;;;;;;;0.30;0.30;;;;;;;27.59;34.63;100539.92;91249;1271;22282;-68
2023/07/16 09:08:55;;;;;;;0.80;0.30;;;;;;;27.67;34.57;100540.89;91082;1275;138008;-70
2023/07/16 09:10:57;;;;;;;1.10;0.30;;;;;;;27.74;34.47;100541.88;91123;1272;22327;-70
2023/07/16 09:13:00;;;;;;;0.60;0.20;;;;;;;27.80;33.88;100537.62;91039;1268;137308;-72
2023/07/16 09:15:02;;;;;;;2.10;0.60;;;;;;;27.81;34.19;100532.56;91111;1272;22340;-70
2023/07/16 09:17:04;;;;;;;4.60;0.20;;;;;;;27.73;34.38;100522.94;91083;1275;137416;-69
2023/07/16 09:19:13;;;;;;;3.10;0.20;;;;;;;27.69;34.65;100522.95;91235;1270;22986;-71
2023/07/16 09:21:15;;;;;;;1.90;0.40;;;;;;;27.72;34.57;100533.84;90967;1260;137400;-70
2023/07/16 09:23:17;;;;;;;1.10;0.50;;;;;;;27.72;34.27;100533.10;91257;1271;22334;-70
2023/07/16 09:25:19;;;;;;;0.90;0.30;;;;;;;27.73;33.81;100531.45;91105;1273;137567;-69
2023/07/16 09:27:21;;;;;;;1.40;0.30;;;;;;;27.72;33.73;100529.70;91260;1274;23206;-72
2023/07/16 09:29:26;;;;;;;0.70;0.20;;;;;;;27.68;33.85;100520.23;91111;1272;138347;-71
2023/07/16 09:31:28;;;;;;;1.60;0.30;;;;;;;27.72;34.18;100518.81;91235;1271;22311;-70
2023/07/16 09:33:31;;;;;;;0.60;0.40;;;;;;;27.79;34.58;100521.77;90990;1272;137810;-70
2023/07/16 09:35:35;;;;;;;0.40;0.40;;;;;;;27.78;34.04;100520.78;91239;1273;22779;-69
2023/07/16 09:37:38;;;;;;;;;;;;;;;27.73;34.46;100521.42;91163;1273;137969;-71
2023/07/16 09:39:41;;;;;;;1.30;0.40;;;;;;;27.66;34.82;100521.02;91214;1270;22384;-69
2023/07/16 09:41:43;;;;;;;1.70;0.50;;;;;;;27.57;34.98;100506.33;91110;1273;137440;-72
2023/07/16 09:43:45;;;;;;;0.90;0.30;;;;;;;27.61;34.95;100504.24;91274;1272;22369;-71
2023/07/16 09:45:47;;;;;;;1.70;0.20;;;;;;;27.67;35.00;100503.93;90987;1273;138665;-71
2023/07/16 09:47:49;;;;;;;0.80;0.30;;;;;;;27.70;35.06;100504.42;91234;1270;22355;-71
2023/07/16 09:49:50;;;;;;;0.20;0.20;;;;;;;27.72;34.60;100503.41;91134;1273;138547;-73
2023/07/16 09:51:56;;;;;;;3.70;0.60;;;;;;;27.77;34.47;100513.40;91224;1273;22190;-71
2023/07/16 09:54:00;;;;;;;1.30;1.00;;;;;;;27.72;34.01;100517.15;91154;1274;138184;-70
2023/07/16 09:56:04;;;;;;;0.90;0.30;;;;;;;27.67;34.09;100517.17;91220;1274;22380;-71
2023/07/16 09:58:10;;;;;;;0.50;0.50;;;;;;;27.65;34.81;100518.05;91233;1273;22323;-71
2023/07/16 10:00:14;;;;;;;0.60;0.30;;;;;;;27.64;34.79;100516.69;91145;1270;138027;-70
2023/07/16 10:02:20;;;;;;;2.10;0.40;;;;;;;27.67;34.92;100513.84;91247;1275;23065;-70
2023/07/16 10:04:23;;;;;;;0.70;0.40;;;;;;;27.72;34.60;100511.58;91130;1273;138200;-69
2023/07/16 10:06:24;;;;;;;1.10;0.70;;;;;;;27.70;35.12;100500.54;91101;1272;22193;-69
2023/07/16 10:08:34;;;;;;;3.40;0.40;;;;;;;27.71;35.38;100486.50;91106;1271;138501;-70
2023/07/16 10:10:54;;;;;;;0.60;0.60;;;;;;;27.87;35.39;100498.41;91223;1271;22218;-70
2023/07/16 10:12:58;;;;;;;1.20;0.80;;;;;;;27.97;35.04;100511.33;91135;1271;137508;-70
2023/07/16 10:15:02;;;;;;;0.60;0.60;;;;;;;28.00;34.33;100513.37;91073;1278;22536;-70
2023/07/16 10:17:05;;;;;;;1.70;0.40;;;;;;;28.01;34.01;100515.55;91146;1273;138702;-70
2023/07/16 10:19:06;;;;;;;1.40;0.30;;;;;;;28.03;34.20;100512.92;91226;1272;23233;-70
2023/07/16 10:21:09;;;;;;;0.90;0.40;;;;;;;28.05;34.23;100512.11;91020;1275;137717;-70
2023/07/16 10:23:15;;;;;;;0.90;0.40;;;;;;;28.06;33.78;100508.05;91238;1274;22318;-69
2023/07/16 10:25:16;;;;;;;3.30;0.40;;;;;;;28.09;33.20;100505.64;91131;1270;137481;-71
2023/07/16 10:27:27;;;;;;;0.30;0.30;;;;;;;28.12;33.29;100501.79;91232;1272;22177;-71
2023/07/16 10:29:28;;;;;;;2.10;0.50;;;;;;;28.18;33.18;100493.58;91172;1275;137511;-70
2023/07/16 10:31:33;;;;;;;0.70;0.30;;;;;;;28.23;33.56;100492.20;91232;1273;23402;-67
2023/07/16 10:33:38;;;;;;;0.80;0.50;;;;;;;28.22;33.63;100488.36;91123;1272;137580;-70
2023/07/16 10:35:44;;;;;;;2.80;0.70;;;;;;;28.23;33.41;100484.30;91111;1276;22289;-71
2023/07/16 10:37:46;;;;;;;4.00;0.90;;;;;;;28.20;33.17;100489.11;91153;1275;138857;-71
2023/07/16 10:39:49;;;;;;;0.60;0.30;;;;;;;28.15;33.41;100485.66;91218;1264;22437;-70
2023/07/16 10:41:51;;;;;;;2.40;0.40;;;;;;;28.14;33.68;100480.73;91128;1272;137300;-72
2023/07/16 10:43:53;;;;;;;0.50;0.50;;;;;;;28.17;34.18;100484.42;91247;1273;22233;-69
2023/07/16 10:45:57;;;;;;;0.60;0.60;;;;;;;28.21;34.61;100480.21;91120;1275;137536;-66
2023/07/16 10:47:58;;;;;;;1.10;0.50;;;;;;;28.25;34.29;100477.94;91232;1260;22328;-71
2023/07/16 10:50:03;;;;;;;3.20;1.00;;;;;;;28.33;34.26;100476.69;91158;1272;138673;-70
2023/07/16 10:52:05;;;;;;;0.40;0.40;;;;;;;28.40;33.88;100474.31;91143;1270;138721;-71
2023/07/16 10:54:07;;;;;;;1.10;0.40;;;;;;;28.37;33.15;100473.38;91280;1272;22236;-71
2023/07/16 10:56:08;;;;;;;1.00;0.50;;;;;;;28.30;33.54;100470.16;91125;1275;138126;-70
2023/07/16 10:58:10;;;;;;;2.40;0.50;;;;;;;28.26;33.86;100468.16;91263;1273;22291;-69
2023/07/16 11:00:12;;;;;;;1.50;0.40;;;;;;;28.26;34.30;100467.83;90954;1273;138250;-71
2023/07/16 11:02:16;;;;;;;1.30;0.70;;;;;;;28.25;34.16;100470.48;91237;1272;22381;-71
2023/07/16 11:04:17;;;;;;;0.70;0.40;;;;;;;28.21;34.16;100473.86;91149;1272;139037;-70
2023/07/16 11:06:19;;;;;;;0.70;0.70;;;;;;;28.14;33.67;100476.84;91234;1273;22234;-70
2023/07/16 11:08:25;;;;;;;4.40;0.60;;;;;;;28.09;33.87;100477.25;90991;1263;137741;-70
2023/07/16 11:10:30;;;;;;;1.20;0.40;;;;;;;28.12;34.00;100472.88;91218;1272;22204;-71
2023/07/16 11:12:32;;;;;;;0.80;0.50;;;;;;;28.10;34.54;100461.94;91097;1275;139339;-70
2023/07/16 11:14:34;;;;;;;1.60;0.70;;;;;;;28.16;34.34;100465.99;91231;1276;22209;-71
2023/07/16 11:16:37;;;;;;;0.50;0.40;;;;;;;28.15;33.82;100470.01;91126;1273;139121;-70
2023/07/16 11:18:41;;;;;;;0.50;0.50;;;;;;;28.11;33.29;100473.05;91282;1275;23061;-73
2023/07/16 11:20:43;;;;;;;2.20;1.20;;;;;;;28.05;32.95;100469.83;91125;1274;139707;-72
2023/07/16 11:22:46;;;;;;;0.50;0.30;;;;;;;28.00;32.99;100467.41;91223;1270;23008;-70
2023/07/16 11:24:50;;;;;;;2.30;0.40;;;;;;;27.99;33.30;100462.55;91167;1275;137643;-73
2023/07/16 11:26:58;;;;;;;0.60;0.60;;;;;;;28.03;33.89;100459.94;91052;1273;22361;-72
2023/07/16 11:29:00;;;;;;;0.50;0.40;;;;;;;28.02;34.22;100445.16;91138;1275;138394;-71
2023/07/16 11:31:14;;;;;;;1.10;0.50;;;;;;;28.16;34.87;100456.04;91268;1269;22268;-69
2023/07/16 11:33:15;;;;;;;2.30;0.50;;;;;;;28.21;33.89;100460.22;91136;1273;137440;-69
2023/07/16 11:35:19;;;;;;;1.70;0.60;;;;;;;28.09;33.34;100443.34;91162;1274;22232;-71
2023/07/16 11:37:21;;;;;;;0.90;0.50;;;;;;;28.03;33.76;100442.08;91042;1268;138933;-70
2023/07/16 11:39:27;;;;;;;0.90;0.70;;;;;;;28.10;33.99;100454.28;91233;1273;23034;-69
2023/07/16 11:41:30;;;;;;;1.60;0.70;;;;;;;28.17;33.97;100451.63;91121;1269;138771;-68
2023/07/16 11:43:39;;;;;;;0.50;0.50;;;;;;;28.25;34.09;100450.83;91107;1273;22190;-72
2023/07/16 11:45:47;;;;;;;1.00;0.60;;;;;;;28.34;33.77;100446.02;91143;1273;138105;-70
2023/07/16 11:47:49;;;;;;;1.30;0.40;;;;;;;28.39;33.60;100442.41;91048;1273;22369;-71
2023/07/16 11:49:52;;;;;;;0.60;0.60;;;;;;;28.42;33.29;100439.95;91147;1270;138567;-70
2023/07/16 11:51:54;;;;;;;1.50;0.60;;;;;;;28.41;33.47;100434.75;91113;1273;22347;-71
2023/07/16 11:53:56;;;;;;;0.80;0.80;;;;;;;28.43;33.56;100435.27;91141;1273;138716;-70
2023/07/16 11:55:58;;;;;;;7.50;0.70;;;;;;;28.47;33.87;100435.66;91086;1274;22215;-71
2023/07/16 11:58:00;;;;;;;0.90;0.50;;;;;;;28.49;34.11;100431.29;91123;1273;138063;-72
2023/07/16 12:00:03;;;;;;;1.50;0.80;;;;;;;28.49;34.54;100432.77;91278;1270;22979;-70
2023/07/16 12:02:06;;;;;;;1.20;0.80;;;;;;;28.48;34.45;100432.25;91075;1279;22859;-71
2023/07/16 12:04:08;;;;;;;1.90;0.70;;;;;;;28.45;34.38;100432.38;91133;1276;137978;-71
2023/07/16 12:06:09;;;;;;;1.50;0.80;;;;;;;28.39;34.41;100433.44;91073;1280;22252;-69
2023/07/16 12:08:14;;;;;;;2.90;0.50;;;;;;;28.36;34.34;100433.44;91106;1273;137858;-70
2023/07/16 12:10:16;;;;;;;1.40;1.10;;;;;;;28.35;34.10;100433.23;91232;1270;22655;-70
2023/07/16 12:12:18;;;;;;;0.70;0.50;;;;;;;28.36;34.19;100430.53;91160;1276;138777;-73
2023/07/16 12:14:20;;;;;;;4.30;0.80;;;;;;;28.39;34.50;100428.51;91267;1271;22288;-71
2023/07/16 12:16:22;;;;;;;0.60;0.50;;;;;;;28.43;34.50;100425.39;91121;1272;138017;-71
2023/07/16 12:18:23;;;;;;;1.40;0.70;;;;;;;28.47;34.70;100427.07;91157;1275;22385;-69
2023/07/16 12:20:26;;;;;;;1.00;0.40;;;;;;;28.52;35.02;100425.71;91132;1278;137611;-71
2023/07/16 12:22:27;;;;;;;2.40;1.10;;;;;;;28.56;35.13;100425.16;91263;1273;22209;-71
2023/07/16 12:24:30;;;;;;;1.10;1.00;;;;;;;28.57;34.66;100419.38;91130;1275;139617;-73
2023/07/16 12:26:32;;;;;;;0.60;0.60;;;;;;;28.58;34.61;100419.24;91283;1275;22266;-71
2023/07/16 12:28:34;;;;;;;1.80;0.70;;;;;;;28.58;34.84;100421.00;91112;1271;139473;-69
2023/07/16 12:30:35;;;;;;;1.20;0.70;;;;;;;28.60;34.67;100423.20;91250;1270;22250;-71
2023/07/16 12:32:37;;;;;;;4.90;0.70;;;;;;;28.63;34.38;100421.06;91134;1271;137746;-70
2023/07/16 12:34:39;;;;;;;1.60;1.00;;;;;;;28.63;34.49;100419.63;91246;1276;22416;-70
2023/07/16 12:36:40;;;;;;;0.90;0.90;;;;;;;28.62;34.53;100419.38;91070;1270;139142;-71
2023/07/16 12:38:42;;;;;;;3.00;1.20;;;;;;;28.58;34.63;100414.00;91079;1272;22929;-69
2023/07/16 12:40:44;;;;;;;1.90;0.80;;;;;;;28.56;34.82;100412.97;91138;1278;138958;-72
2023/07/16 12:42:45;;;;;;;1.00;0.70;;;;;;;28.58;34.95;100411.89;91263;1276;22167;-73
2023/07/16 12:44:49;;;;;;;0.80;0.50;;;;;;;28.61;35.10;100413.53;91121;1270;137490;-71
2023/07/16 12:46:51;;;;;;;1.70;0.70;;;;;;;28.57;34.43;100410.98;91171;1273;22235;-70
2023/07/16 12:48:52;;;;;;;2.20;0.60;;;;;;;28.42;34.36;100402.23;91160;1272;138872;-69
2023/07/16 12:50:54;;;;;;;1.90;1.00;;;;;;;28.39;34.70;100413.31;91238;1257;22318;-70
2023/07/16 12:52:56;;;;;;;0.90;0.80;;;;;;;28.28;34.63;100412.75;91100;1270;137246;-71
2023/07/16 12:54:57;;;;;;;3.60;1.00;;;;;;;28.21;34.86;100412.74;91260;1276;23233;-71
2023/07/16 12:56:59;;;;;;;2.30;0.80;;;;;;;28.15;35.06;100412.21;91139;1271;138335;-70
2023/07/16 12:59:01;;;;;;;1.50;0.80;;;;;;;28.12;35.78;100411.51;91235;1266;22193;-69
2023/07/16 13:01:03;;;;;;;3.60;0.80;;;;;;;28.12;36.03;100410.23;91148;1274;138440;-70
2023/07/16 13:03:05;;;;;;;1.00;0.90;;;;;;;28.15;35.79;100408.48;91114;1263;22242;-72
2023/07/16 13:05:07;;;;;;;0.80;0.60;;;;;;;28.18;35.61;100405.96;91117;1270;138935;-71
2023/07/16 13:07:09;;;;;;;2.00;0.80;;;;;;;28.19;35.53;100406.64;91247;1270;22461;-67
2023/07/16 13:09:10;;;;;;;0.90;0.60;;;;;;;28.22;35.68;100407.52;91019;1273;138397;-71
2023/07/16 13:11:15;;;;;;;0.50;0.50;;;;;;;28.27;35.62;100403.71;91101;1279;22297;-71
2023/07/16 13:13:17;;;;;;;2.30;0.60;;;;;;;28.29;35.51;100400.40;91124;1270;137831;-70
2023/07/16 13:15:19;;;;;;;1.60;1.10;;;;;;;28.27;35.25;100400.34;91221;1270;22317;-71
2023/07/16 13:17:20;;;;;;;1.30;0.90;;;;;;;28.21;35.09;100399.16;90899;1273;137665;-69
2023/07/16 13:19:22;;;;;;;1.20;0.60;;;;;;;28.15;34.59;100399.55;91232;1270;22201;-72
2023/07/16 13:21:24;;;;;;;1.20;0.80;;;;;;;28.13;34.53;100399.05;91133;1270;137537;-70
2023/07/16 13:23:25;;;;;;;1.10;0.80;;;;;;;28.14;34.61;100399.03;91035;1273;22307;-69
2023/07/16 13:25:29;;;;;;;2.30;0.70;;;;;;;28.20;34.96;100399.24;91124;1275;137601;-71
2023/07/16 13:27:31;;;;;;;0.90;0.90;;;;;;;28.25;35.49;100397.04;91259;1271;22336;-72
2023/07/16 13:29:32;;;;;;;1.00;0.90;;;;;;;28.26;35.60;100391.77;90933;1261;138897;-69
2023/07/16 13:31:34;;;;;;;1.10;0.90;;;;;;;28.24;35.65;100392.80;91239;1270;22247;-71
2023/07/16 13:33:36;;;;;;;1.10;1.10;;;;;;;28.24;35.51;100391.48;91015;1273;137583;-71
2023/07/16 13:35:38;;;;;;;1.20;0.90;;;;;;;28.26;35.39;100388.04;90981;1279;22396;-70
2023/07/16 13:37:39;;;;;;;0.80;0.80;;;;;;;28.28;35.38;100388.98;91126;1270;138150;-69
2023/07/16 13:39:41;;;;;;;1.50;1.10;;;;;;;28.27;35.03;100388.02;91040;1273;22320;-71
2023/07/16 13:41:43;;;;;;;0.80;0.80;;;;;;;28.24;34.92;100387.85;91068;1271;137601;-72
2023/07/16 13:43:45;;;;;;;1.20;1.10;;;;;;;28.15;35.29;100378.00;91049;1272;22311;-70
2023/07/16 13:45:46;;;;;;;1.00;0.60;;;;;;;28.20;35.63;100386.89;90947;1277;137325;-70
2023/07/16 13:47:52;;;;;;;0.90;0.80;;;;;;;28.19;35.34;100385.98;91025;1273;23088;-73
2023/07/16 13:49:54;;;;;;;1.10;1.00;;;;;;;28.20;35.52;100384.55;90966;1273;137354;-70
2023/07/16 13:51:56;;;;;;;1.20;1.10;;;;;;;28.22;35.75;100379.56;91246;1276;22364;-71
2023/07/16 13:53:58;;;;;;;3.60;1.30;;;;;;;28.25;35.78;100379.28;91174;1270;137183;-71
2023/07/16 13:55:59;;;;;;;1.20;0.90;;;;;;;28.26;35.37;100374.33;91278;1270;22355;-70
2023/07/16 13:58:01;;;;;;;1.20;0.80;;;;;;;28.26;35.27;100376.80;91116;1270;138571;-71
2023/07/16 14:00:04;;;;;;;1.50;0.70;;;;;;;28.19;35.55;100364.94;91205;1270;22323;-70
2023/07/16 14:02:06;;;;;;;1.20;1.00;;;;;;;28.23;35.74;100371.65;91216;1270;22856;-72
2023/07/16 14:04:08;;;;;;;0.70;0.70;;;;;;;28.19;35.53;100375.70;91144;1273;140050;-73
2023/07/16 14:06:10;;;;;;;0.90;0.80;;;;;;;28.15;35.77;100373.63;91228;1276;22327;-72
2023/07/16 14:08:11;;;;;;;0.70;0.70;;;;;;;28.15;35.91;100372.53;91098;1270;140174;-69
2023/07/16 14:10:14;;;;;;;1.50;0.80;;;;;;;28.16;36.07;100371.25;91259;1270;22373;-71
2023/07/16 14:12:15;;;;;;;1.60;0.70;;;;;;;28.21;36.26;100366.98;91134;1270;138820;-70
2023/07/16 14:14:18;;;;;;;1.20;1.10;;;;;;;28.23;36.65;100362.34;91283;1278;22241;-73
2023/07/16 14:16:20;;;;;;;3.20;0.80;;;;;;;28.23;37.14;100362.34;91141;1278;138778;-71
2023/07/16 14:18:22;;;;;;;1.50;1.30;;;;;;;28.24;37.17;100355.97;91183;1270;22364;-72
2023/07/16 14:20:24;;;;;;;1.10;0.40;;;;;;;28.23;37.11;100354.40;91147;1270;139614;-72
2023/07/16 14:22:27;;;;;;;1.40;0.80;;;;;;;28.23;36.98;100354.02;91238;1270;22819;-70
2023/07/16 14:24:29;;;;;;;2.00;1.10;;;;;;;28.26;36.75;100350.82;91165;1270;138411;-73
2023/07/16 14:26:31;;;;;;;1.40;0.80;;;;;;;28.27;36.74;100351.18;91263;1270;22276;-73
2023/07/16 14:28:33;;;;;;;7.60;0.90;;;;;;;28.24;36.78;100350.64;90835;1274;139104;-72
2023/07/16 14:30:34;;;;;;;1.00;0.90;;;;;;;28.26;36.41;100348.46;91046;1273;22158;-71
2023/07/16 14:32:36;;;;;;;1.70;1.10;;;;;;;28.29;35.73;100344.95;90965;1267;137368;-71
2023/07/16 14:34:38;;;;;;;1.70;1.20;;;;;;;28.33;35.38;100346.02;91278;1271;22329;-73
2023/07/16 14:36:41;;;;;;;2.90;1.00;;;;;;;28.38;35.30;100343.16;90989;1273;137302;-71
2023/07/16 14:38:42;;;;;;;2.70;2.50;;;;;;;28.41;35.21;100344.23;91245;1270;22185;-70
2023/07/16 14:40:44;;;;;;;1.30;0.80;;;;;;;28.44;35.27;100342.97;91025;1273;139543;-70
2023/07/16 14:42:46;;;;;;;0.90;0.90;;;;;;;28.45;35.57;100341.98;91268;1272;22232;-70
2023/07/16 14:44:47;;;;;;;1.60;0.60;;;;;;;28.44;35.75;100339.06;90998;1273;137524;-71
2023/07/16 14:46:49;;;;;;;1.20;1.10;;;;;;;28.48;35.82;100338.88;91231;1270;23390;-71
2023/07/16 14:48:55;;;;;;;0.70;0.70;;;;;;;28.48;35.78;100339.04;90942;1276;139119;-71
2023/07/16 14:50:56;;;;;;;1.30;1.00;;;;;;;28.49;35.92;100337.92;91225;1270;23007;-71
2023/07/16 14:52:58;;;;;;;1.60;1.30;;;;;;;28.50;36.14;100337.73;91098;1277;138663;-70
2023/07/16 14:55:00;;;;;;;0.60;0.50;;;;;;;28.51;36.25;100334.31;91277;1270;22206;-71
2023/07/16 14:57:03;;;;;;;0.90;0.80;;;;;;;28.51;36.09;100333.94;91120;1270;138492;-70
2023/07/16 14:59:04;;;;;;;1.80;0.60;;;;;;;28.51;36.24;100329.04;91255;1270;22207;-70
2023/07/16 15:01:09;;;;;;;1.00;0.80;;;;;;;28.52;36.34;100327.80;91153;1276;138867;-71
2023/07/16 15:03:11;;;;;;;1.90;1.00;;;;;;;28.53;36.37;100324.53;91008;1273;22973;-71
2023/07/16 15:05:13;;;;;;;1.10;1.10;;;;;;;28.51;36.58;100329.04;91128;1274;138552;-71
2023/07/16 15:07:15;;;;;;;2.00;0.80;;;;;;;28.34;36.80;100309.70;91254;1273;22741;-71
2023/07/16 15:09:16;;;;;;;0.80;0.80;;;;;;;28.46;36.70;100331.70;91119;1270;137934;-69
2023/07/16 15:11:18;;;;;;;1.40;1.00;;;;;;;28.47;36.79;100328.64;91217;1271;22229;-70
2023/07/16 15:13:22;;;;;;;1.30;1.20;;;;;;;28.48;36.76;100328.08;90978;1273;138598;-66
2023/07/16 15:15:23;;;;;;;0.90;0.90;;;;;;;28.47;36.62;100325.84;91256;1271;22329;-62
2023/07/16 15:17:25;;;;;;;2.90;1.00;;;;;;;28.48;36.43;100325.48;91075;1270;137425;-72
2023/07/16 15:19:27;;;;;;;1.10;1.00;;;;;;;28.48;36.35;100326.32;91262;1270;22575;-72
2023/07/16 15:21:29;;;;;;;1.60;1.10;;;;;;;28.46;36.19;100324.89;91124;1270;138901;-71
2023/07/16 15:23:32;;;;;;;2.00;0.80;;;;;;;28.44;36.27;100323.83;91226;1270;22360;-72
2023/07/16 15:25:33;;;;;;;0.90;0.70;;;;;;;28.42;36.34;100327.60;91123;1273;137744;-74
2023/07/16 15:27:35;;;;;;;1.50;1.00;;;;;;;28.43;36.17;100329.22;91244;1266;22195;-72
2023/07/16 15:29:37;;;;;;;1.50;1.40;;;;;;;28.43;36.72;100327.09;90967;1272;137377;-71
2023/07/16 15:31:38;;;;;;;3.00;1.60;;;;;;;28.41;37.16;100332.00;91162;1270;23050;-73
2023/07/16 15:33:43;;;;;;;2.30;0.70;;;;;;;28.39;36.71;100333.59;91083;1254;137960;-72
2023/07/16 15:35:45;;;;;;;4.10;2.50;;;;;;;28.35;36.52;100327.05;91260;1271;22381;-72
2023/07/16 15:37:46;;;;;;;1.20;1.20;;;;;;;28.37;36.80;100330.14;91010;1270;139572;-73
2023/07/16 15:39:49;;;;;;;2.30;1.60;;;;;;;28.36;37.12;100328.56;91059;1272;22268;-72
2023/07/16 15:41:50;;;;;;;3.10;1.40;;;;;;;28.34;37.32;100329.52;91107;1270;139423;-72
2023/07/16 15:43:53;;;;;;;1.60;1.30;;;;;;;28.33;37.21;100324.98;90999;1273;22920;-73
2023/07/16 15:45:55;;;;;;;0.90;0.90;;;;;;;28.34;36.39;100325.88;91139;1278;139348;-72
2023/07/16 15:47:59;;;;;;;2.20;1.00;;;;;;;28.34;35.80;100324.42;91241;1270;22270;-73
2023/07/16 15:50:02;;;;;;;1.80;1.00;;;;;;;28.35;35.55;100320.86;91136;1265;137013;-73
2023/07/16 15:52:04;;;;;;;1.30;1.00;;;;;;;28.36;35.41;100321.70;91000;1272;137889;-73
2023/07/16 15:54:06;;;;;;;3.50;0.80;;;;;;;28.35;35.56;100322.22;91211;1270;22946;-72
2023/07/16 15:56:15;;;;;;;1.10;1.10;;;;;;;28.33;35.93;100320.90;90944;1272;137741;-72
2023/07/16 15:58:19;;;;;;;2.70;1.10;;;;;;;28.31;36.34;100319.73;91229;1270;22249;-73
2023/07/16 16:00:23;;;;;;;6.10;3.70;;;;;;;28.30;36.47;100316.98;91141;1270;138006;-74
2023/07/16 16:02:24;;;;;;;3.50;2.70;;;;;;;28.30;36.96;100317.58;91250;1270;22791;-73
2023/07/16 16:04:26;;;;;;;2.40;1.80;;;;;;;28.28;37.65;100318.54;91126;1270;137658;-73
2023/07/16 16:06:29;;;;;;;1.80;1.60;;;;;;;28.28;37.68;100324.85;91147;1272;22347;-73
2023/07/16 16:08:34;;;;;;;1.90;1.50;;;;;;;28.27;37.91;100324.31;91140;1270;137170;-73